createdAt,value
2023-02-19T00:01:52.503Z,5.41
2023-02-19T00:04:24.797Z,5.43
2023-02-19T00:06:53.205Z,5.42
2023-02-19T00:09:21.828Z,5.25
2023-02-19T00:11:50.097Z,5.09
2023-02-19T00:14:21.432Z,5.21
2023-02-19T00:16:50.094Z,5.23
2023-02-19T00:19:20.480Z,5.23
2023-02-19T00:21:52.230Z,5.20
2023-02-19T00:24:21.376Z,5.19
2023-02-19T00:26:49.652Z,4.67
2023-02-19T00:29:20.647Z,4.73
2023-02-19T00:31:49.197Z,4.71
2023-02-19T00:34:17.091Z,4.74
2023-02-19T00:36:45.590Z,4.96
2023-02-19T00:39:16.219Z,5.12
2023-02-19T00:41:46.660Z,5.03
2023-02-19T00:44:15.138Z,5.11
2023-02-19T00:46:46.280Z,5.21
2023-02-19T00:49:18.384Z,4.97
2023-02-19T00:51:47.598Z,4.89
2023-02-19T00:54:15.542Z,4.84
2023-02-19T00:56:43.925Z,5.07
2023-02-19T00:59:11.739Z,5.13
2023-02-19T01:01:40.304Z,5.19
2023-02-19T01:04:08.464Z,4.87
2023-02-19T01:06:37.301Z,4.83
2023-02-19T01:09:07.421Z,4.87
2023-02-19T01:11:36.142Z,4.75
2023-02-19T01:14:05.187Z,4.64
2023-02-19T01:16:33.357Z,4.52
2023-02-19T01:19:01.327Z,4.70
2023-02-19T01:21:31.297Z,4.91
2023-02-19T01:23:59.996Z,4.94
2023-02-19T01:26:31.670Z,4.97
2023-02-19T01:29:01.019Z,4.92
2023-02-19T01:31:30.460Z,4.91
2023-02-19T01:34:00.766Z,4.94
2023-02-19T01:36:30.463Z,4.93
2023-02-19T01:39:01.064Z,4.64
2023-02-19T01:41:29.492Z,4.65
2023-02-19T01:44:01.931Z,4.85
2023-02-19T01:46:35.569Z,4.78
2023-02-19T01:49:11.080Z,4.83
2023-02-19T01:52:01.514Z,4.74
2023-02-19T01:54:32.906Z,4.54
2023-02-19T01:57:04.876Z,4.60
2023-02-19T01:59:34.197Z,4.84
2023-02-19T02:02:02.642Z,4.52
2023-02-19T02:04:34.013Z,4.61
2023-02-19T02:07:24.614Z,4.93
2023-02-19T02:10:12.696Z,5.19
2023-02-19T02:12:40.925Z,5.08
2023-02-19T02:15:09.599Z,5.27
2023-02-19T02:18:04.000Z,5.45
2023-02-19T02:20:40.836Z,5.10
2023-02-19T02:23:50.365Z,5.24
2023-02-19T02:26:55.871Z,5.34
2023-02-19T02:29:53.245Z,5.34
2023-02-19T02:32:27.316Z,5.27
2023-02-19T02:35:05.549Z,5.26
2023-02-19T02:37:37.638Z,5.13
2023-02-19T02:40:09.808Z,5.21
2023-02-19T02:42:40.810Z,5.34
2023-02-19T02:45:36.580Z,5.57
2023-02-19T02:48:25.179Z,5.72
2023-02-19T02:51:10.660Z,5.62
2023-02-19T02:54:39.714Z,5.51
2023-02-19T02:57:15.182Z,5.71
2023-02-19T02:59:53.939Z,5.56
2023-02-19T03:02:31.219Z,5.87
2023-02-19T03:05:34.309Z,5.91
2023-02-19T03:08:12.196Z,5.97
2023-02-19T03:10:51.472Z,5.90
2023-02-19T03:13:46.528Z,5.92
2023-02-19T03:16:42.952Z,5.98
2023-02-19T03:19:22.196Z,6.14
2023-02-19T03:21:57.668Z,6.06
2023-02-19T03:24:52.493Z,6.04
2023-02-19T03:27:22.295Z,5.90
2023-02-19T03:29:59.226Z,5.69
2023-02-19T03:32:36.761Z,6.12
2023-02-19T03:35:27.652Z,6.00
2023-02-19T03:38:23.019Z,6.10
2023-02-19T03:41:07.868Z,6.12
2023-02-19T03:44:08.375Z,6.20
2023-02-19T03:47:05.459Z,5.99
2023-02-19T03:49:50.152Z,6.25
2023-02-19T03:52:42.236Z,6.42
2023-02-19T03:55:17.382Z,6.49
2023-02-19T03:57:59.036Z,6.56
2023-02-19T04:00:45.306Z,6.53
2023-02-19T04:03:19.539Z,6.57
2023-02-19T04:05:58.875Z,6.66
2023-02-19T04:08:28.469Z,6.49
2023-02-19T04:11:03.195Z,6.45
2023-02-19T04:13:48.979Z,6.37
2023-02-19T04:16:22.470Z,6.31
2023-02-19T04:18:55.452Z,6.26
2023-02-19T04:21:24.240Z,6.18
2023-02-19T04:23:52.717Z,6.27
2023-02-19T04:26:23.366Z,6.34
2023-02-19T04:28:51.429Z,6.17
2023-02-19T04:31:19.819Z,6.17
2023-02-19T04:33:48.080Z,6.31
2023-02-19T04:36:15.835Z,6.54
2023-02-19T04:38:44.128Z,6.63
2023-02-19T04:41:12.419Z,6.47
2023-02-19T04:43:40.736Z,6.38
2023-02-19T04:46:08.831Z,6.53
2023-02-19T04:48:37.080Z,6.76
2023-02-19T04:51:08.573Z,6.90
2023-02-19T04:53:37.754Z,6.96
2023-02-19T04:56:11.698Z,7.06
2023-02-19T04:58:41.571Z,6.96
2023-02-19T05:01:10.951Z,7.11
2023-02-19T05:03:39.543Z,7.13
2023-02-19T05:06:11.019Z,7.18
2023-02-19T05:08:40.142Z,7.19
2023-02-19T05:11:11.134Z,7.29
2023-02-19T05:13:40.201Z,7.37
2023-02-19T05:16:15.070Z,7.34
2023-02-19T05:18:45.374Z,7.17
2023-02-19T05:21:15.904Z,7.49
2023-02-19T05:23:44.741Z,7.66
2023-02-19T05:26:19.423Z,7.85
2023-02-19T05:28:50.152Z,7.95
2023-02-19T05:31:18.986Z,8.03
2023-02-19T05:33:51.470Z,8.07
2023-02-19T05:36:21.801Z,8.09
2023-02-19T05:38:57.768Z,8.21
2023-02-19T05:41:28.513Z,8.17
2023-02-19T05:43:58.046Z,8.22
2023-02-19T05:46:29.971Z,8.43
2023-02-19T05:49:01.426Z,8.62
2023-02-19T05:51:30.154Z,8.56
2023-02-19T05:53:58.422Z,8.48
2023-02-19T05:56:40.328Z,8.53
2023-02-19T05:59:18.339Z,8.21
2023-02-19T06:01:46.510Z,8.40
2023-02-19T06:04:15.812Z,8.31
2023-02-19T06:06:43.769Z,8.22
2023-02-19T06:09:12.450Z,8.03
2023-02-19T06:11:41.088Z,8.15
2023-02-19T06:14:09.260Z,8.21
2023-02-19T06:16:37.412Z,8.60
2023-02-19T06:19:05.775Z,8.70
2023-02-19T06:21:34.056Z,8.96
2023-02-19T06:24:07.022Z,8.81
2023-02-19T06:26:35.125Z,8.87
2023-02-19T06:29:03.845Z,8.71
2023-02-19T06:31:32.275Z,8.76
2023-02-19T06:34:04.674Z,8.74
2023-02-19T06:36:32.720Z,8.77
2023-02-19T06:39:02.297Z,8.65
2023-02-19T06:41:30.149Z,8.70
2023-02-19T06:43:59.200Z,8.75
2023-02-19T06:46:27.124Z,8.78
2023-02-19T06:48:55.369Z,8.92
2023-02-19T06:51:27.478Z,8.91
2023-02-19T06:53:56.273Z,8.71
2023-02-19T06:56:28.354Z,8.88
2023-02-19T06:59:01.641Z,8.84
2023-02-19T07:01:49.475Z,8.83
2023-02-19T07:04:18.063Z,8.85
2023-02-19T07:06:45.825Z,8.81
2023-02-19T07:09:14.066Z,8.74
2023-02-19T07:11:42.730Z,8.97
2023-02-19T07:14:16.030Z,9.09
2023-02-19T07:16:44.706Z,8.98
2023-02-19T07:19:13.247Z,8.92
2023-02-19T07:21:42.658Z,8.96
2023-02-19T07:24:10.885Z,8.68
2023-02-19T07:26:39.059Z,8.86
2023-02-19T07:29:07.944Z,8.72
2023-02-19T07:31:36.415Z,8.75
2023-02-19T07:34:05.094Z,8.57
2023-02-19T07:36:32.928Z,8.87
2023-02-19T07:39:01.043Z,9.03
2023-02-19T07:41:28.959Z,8.92
2023-02-19T07:43:59.358Z,8.97
2023-02-19T07:46:27.748Z,9.16
2023-02-19T07:48:56.173Z,9.23
2023-02-19T07:51:24.134Z,9.11
2023-02-19T07:53:52.403Z,8.94
2023-02-19T07:56:21.174Z,9.15
2023-02-19T07:58:49.673Z,9.23
2023-02-19T08:01:40.221Z,8.94
2023-02-19T08:04:08.846Z,9.07
2023-02-19T08:06:36.586Z,9.15
2023-02-19T08:09:06.112Z,9.29
2023-02-19T08:11:52.714Z,9.56
2023-02-19T08:14:25.082Z,9.50
2023-02-19T08:16:53.796Z,9.16
2023-02-19T08:19:22.659Z,9.31
2023-02-19T08:21:50.982Z,9.24
2023-02-19T08:24:19.313Z,9.33
2023-02-19T08:26:47.207Z,9.32
2023-02-19T08:29:15.810Z,9.48
2023-02-19T08:31:43.762Z,9.49
2023-02-19T08:34:12.102Z,9.33
2023-02-19T08:36:40.287Z,9.43
2023-02-19T08:39:08.639Z,9.52
2023-02-19T08:41:36.658Z,9.42
2023-02-19T08:44:04.940Z,9.23
2023-02-19T08:46:34.412Z,9.55
2023-02-19T08:49:02.746Z,9.59
2023-02-19T08:51:30.897Z,9.66
2023-02-19T08:53:59.118Z,9.82
2023-02-19T08:56:26.883Z,9.87
2023-02-19T08:58:55.119Z,9.95
2023-02-19T09:01:24.026Z,9.88
2023-02-19T09:03:53.528Z,9.51
2023-02-19T09:06:21.515Z,9.67
2023-02-19T09:08:50.021Z,9.35
2023-02-19T09:11:18.390Z,9.86
2023-02-19T09:13:46.706Z,9.67
2023-02-19T09:16:14.546Z,9.46
2023-02-19T09:18:43.455Z,9.72
2023-02-19T09:21:11.856Z,9.63
2023-02-19T09:23:40.725Z,9.12
2023-02-19T09:26:11.691Z,9.56
2023-02-19T09:28:42.165Z,9.58
2023-02-19T09:31:13.127Z,9.51
2023-02-19T09:33:46.057Z,9.54
2023-02-19T09:36:16.120Z,9.62
2023-02-19T09:38:44.976Z,9.52
2023-02-19T09:41:31.006Z,9.43
2023-02-19T09:44:02.103Z,9.90
2023-02-19T09:46:39.404Z,9.65
2023-02-19T09:49:14.230Z,9.83
2023-02-19T09:51:47.600Z,9.69
2023-02-19T09:54:23.168Z,9.92
2023-02-19T09:56:53.527Z,9.84
2023-02-19T09:59:26.354Z,9.59
2023-02-19T10:02:03.244Z,9.85
2023-02-19T10:04:31.934Z,9.86
2023-02-19T10:07:03.790Z,9.94
2023-02-19T10:09:35.298Z,9.69
2023-02-19T10:12:03.420Z,9.74
2023-02-19T10:14:42.574Z,10.06
2023-02-19T10:17:21.223Z,9.81
2023-02-19T10:19:49.928Z,9.76
2023-02-19T10:22:19.181Z,9.93
2023-02-19T10:24:52.374Z,10.12
2023-02-19T10:27:20.887Z,9.95
2023-02-19T10:29:51.468Z,10.23
2023-02-19T10:32:30.040Z,10.62
2023-02-19T10:35:12.467Z,10.80
2023-02-19T10:37:49.057Z,10.91
2023-02-19T10:40:20.042Z,10.94
2023-02-19T10:42:50.754Z,10.77
2023-02-19T10:45:34.731Z,10.96
2023-02-19T10:48:03.841Z,11.24
2023-02-19T10:50:39.602Z,11.29
2023-02-19T10:53:25.337Z,10.86
2023-02-19T10:56:13.217Z,11.01
2023-02-19T10:58:45.209Z,10.71
2023-02-19T11:01:23.680Z,10.75
2023-02-19T11:03:53.863Z,11.05
2023-02-19T11:06:27.166Z,11.14
2023-02-19T11:09:01.418Z,10.95
2023-02-19T11:11:36.884Z,11.29
2023-02-19T11:14:17.245Z,10.88
2023-02-19T11:17:00.303Z,10.96
2023-02-19T11:19:49.034Z,10.68
2023-02-19T11:22:42.213Z,10.96
2023-02-19T11:25:17.336Z,10.69
2023-02-19T11:28:02.890Z,10.85
2023-02-19T11:30:33.252Z,10.71
2023-02-19T11:33:20.065Z,10.63
2023-02-19T11:35:49.923Z,10.44
2023-02-19T11:38:20.708Z,10.37
2023-02-19T11:41:24.087Z,10.36
2023-02-19T11:44:01.473Z,10.30
2023-02-19T11:46:32.510Z,10.61
2023-02-19T11:49:09.345Z,10.22
2023-02-19T11:51:52.721Z,10.46
2023-02-19T11:54:32.919Z,10.25
2023-02-19T11:57:26.856Z,10.57
2023-02-19T12:00:26.139Z,10.59
2023-02-19T12:03:12.604Z,10.73
2023-02-19T12:05:59.178Z,10.62
2023-02-19T12:09:15.140Z,10.66
2023-02-19T12:12:01.575Z,10.37
2023-02-19T12:15:08.330Z,10.51
2023-02-19T12:17:58.636Z,10.46
2023-02-19T12:20:43.020Z,10.61
2023-02-19T12:23:44.753Z,10.49
2023-02-19T12:26:29.741Z,10.26
2023-02-19T12:29:18.948Z,10.34
2023-02-19T12:32:03.156Z,10.71
2023-02-19T12:34:40.539Z,10.77
2023-02-19T12:37:28.198Z,10.63
2023-02-19T12:40:04.008Z,10.57
2023-02-19T12:42:51.263Z,10.57
2023-02-19T12:45:34.019Z,10.63
2023-02-19T12:48:20.153Z,10.57
2023-02-19T12:50:53.652Z,10.58
2023-02-19T12:53:33.803Z,10.27
2023-02-19T12:56:10.932Z,10.31
2023-02-19T12:58:48.614Z,10.44
2023-02-19T13:01:29.218Z,10.41
2023-02-19T13:04:19.070Z,10.22
2023-02-19T13:06:58.094Z,10.17
2023-02-19T13:09:31.736Z,10.40
2023-02-19T13:12:07.795Z,10.49
2023-02-19T13:14:49.696Z,10.34
2023-02-19T13:17:32.362Z,10.40
2023-02-19T13:20:27.619Z,10.32
2023-02-19T13:23:43.359Z,10.05
2023-02-19T13:26:38.432Z,9.96
2023-02-19T13:29:25.040Z,9.81
2023-02-19T13:32:23.610Z,9.83
2023-02-19T13:35:13.139Z,9.67
2023-02-19T13:37:41.693Z,9.84
2023-02-19T13:40:28.659Z,9.66
2023-02-19T13:42:59.599Z,9.60
2023-02-19T13:45:37.422Z,9.75
2023-02-19T13:48:31.885Z,9.72
2023-02-19T13:51:21.953Z,9.65
2023-02-19T13:53:59.896Z,9.72
2023-02-19T13:56:31.681Z,9.64
2023-02-19T13:59:13.690Z,9.55
2023-02-19T14:01:54.066Z,9.59
2023-02-19T14:04:41.723Z,9.53
2023-02-19T14:07:10.355Z,9.72
2023-02-19T14:09:39.513Z,9.64
2023-02-19T14:12:10.694Z,9.67
2023-02-19T14:14:49.779Z,9.67
2023-02-19T14:17:36.943Z,9.32
2023-02-19T14:20:33.399Z,9.36
2023-02-19T14:23:15.643Z,9.26
2023-02-19T14:25:52.342Z,9.12
2023-02-19T14:28:30.371Z,9.04
2023-02-19T14:31:01.308Z,9.27
2023-02-19T14:33:35.217Z,9.29
2023-02-19T14:36:12.418Z,9.16
2023-02-19T14:39:31.543Z,9.04
2023-02-19T14:42:02.410Z,8.80
2023-02-19T14:44:35.793Z,8.62
2023-02-19T14:47:05.916Z,8.66
2023-02-19T14:49:49.861Z,8.59
2023-02-19T14:52:51.908Z,8.50
2023-02-19T14:55:38.215Z,8.43
2023-02-19T14:58:11.157Z,8.45
2023-02-19T15:00:41.774Z,8.34
2023-02-19T15:03:30.479Z,8.40
2023-02-19T15:06:07.812Z,8.18
2023-02-19T15:08:40.188Z,8.25
2023-02-19T15:11:12.837Z,8.25
2023-02-19T15:13:45.916Z,8.21
2023-02-19T15:16:20.193Z,8.07
2023-02-19T15:18:50.390Z,8.02
2023-02-19T15:21:26.769Z,7.93
2023-02-19T15:24:00.530Z,7.86
2023-02-19T15:26:43.685Z,8.06
2023-02-19T15:29:14.290Z,7.97
2023-02-19T15:31:47.603Z,8.00
2023-02-19T15:34:21.869Z,8.10
2023-02-19T15:36:53.556Z,8.01
2023-02-19T15:39:44.049Z,8.10
2023-02-19T15:42:20.229Z,8.18
2023-02-19T15:45:17.162Z,7.93
2023-02-19T15:47:59.327Z,7.91
2023-02-19T15:50:31.230Z,8.00
2023-02-19T15:53:05.192Z,8.07
2023-02-19T15:55:48.299Z,8.10
2023-02-19T15:58:29.157Z,8.12
2023-02-19T16:01:08.586Z,8.04
2023-02-19T16:03:37.583Z,7.90
2023-02-19T16:06:16.999Z,7.71
2023-02-19T16:08:47.253Z,7.81
2023-02-19T16:11:24.311Z,7.88
2023-02-19T16:13:52.908Z,7.84
2023-02-19T16:16:23.627Z,7.94
2023-02-19T16:18:53.341Z,7.85
2023-02-19T16:21:25.033Z,7.89
2023-02-19T16:24:16.070Z,7.90
2023-02-19T16:26:45.682Z,7.77
2023-02-19T16:29:33.249Z,7.76
2023-02-19T16:32:04.062Z,7.66
2023-02-19T16:34:50.940Z,7.45
2023-02-19T16:37:40.804Z,7.38
2023-02-19T16:40:43.758Z,7.42
2023-02-19T16:43:14.685Z,7.50
2023-02-19T16:45:47.806Z,7.24
2023-02-19T16:48:16.250Z,7.28
2023-02-19T16:50:46.495Z,7.30
2023-02-19T16:53:25.331Z,7.39
2023-02-19T16:55:53.626Z,7.21
2023-02-19T16:58:21.711Z,7.10
2023-02-19T17:00:50.109Z,7.14
2023-02-19T17:03:21.731Z,7.18
2023-02-19T17:05:51.282Z,7.22
2023-02-19T17:08:35.398Z,7.29
2023-02-19T17:11:06.720Z,7.27
2023-02-19T17:13:34.631Z,7.22
2023-02-19T17:16:02.934Z,7.04
2023-02-19T17:18:32.050Z,7.15
2023-02-19T17:21:10.290Z,7.04
2023-02-19T17:23:38.519Z,7.00
2023-02-19T17:26:06.709Z,7.15
2023-02-19T17:28:35.336Z,7.13
2023-02-19T17:31:03.675Z,7.12
2023-02-19T17:33:31.489Z,6.98
2023-02-19T17:36:00.324Z,7.10
2023-02-19T17:38:29.279Z,7.09
2023-02-19T17:40:57.854Z,7.00
2023-02-19T17:43:25.985Z,7.27
2023-02-19T17:45:54.496Z,7.21
2023-02-19T17:48:22.327Z,7.05
2023-02-19T17:50:52.448Z,7.24
2023-02-19T17:53:20.489Z,7.47
2023-02-19T17:55:48.728Z,7.41
2023-02-19T17:58:16.586Z,7.63
2023-02-19T18:00:44.841Z,7.79
2023-02-19T18:03:12.731Z,7.98
2023-02-19T18:05:40.999Z,8.06
2023-02-19T18:08:09.289Z,7.80
2023-02-19T18:10:38.448Z,7.96
2023-02-19T18:13:06.395Z,7.92
2023-02-19T18:15:35.130Z,7.99
2023-02-19T18:18:05.204Z,7.82
2023-02-19T18:20:33.447Z,7.92
2023-02-19T18:23:01.630Z,7.91
2023-02-19T18:25:29.842Z,8.02
2023-02-19T18:27:59.589Z,7.98
2023-02-19T18:30:28.953Z,8.01
2023-02-19T18:32:57.758Z,7.99
2023-02-19T18:35:26.110Z,8.00
2023-02-19T18:37:55.237Z,7.89
2023-02-19T18:40:26.204Z,7.91
2023-02-19T18:42:54.529Z,7.89
2023-02-19T18:45:22.970Z,7.88
2023-02-19T18:47:51.204Z,7.66
2023-02-19T18:50:21.414Z,7.89
2023-02-19T18:52:49.624Z,7.84
2023-02-19T18:55:18.413Z,7.85
2023-02-19T18:57:47.584Z,7.84
2023-02-19T19:00:23.271Z,7.72
2023-02-19T19:02:51.657Z,7.83
2023-02-19T19:05:23.353Z,7.85
2023-02-19T19:07:54.715Z,7.95
2023-02-19T19:10:24.508Z,7.81
2023-02-19T19:12:54.549Z,7.87
2023-02-19T19:15:25.341Z,7.81
2023-02-19T19:17:53.511Z,8.03
2023-02-19T19:20:24.177Z,7.81
2023-02-19T19:22:53.846Z,7.42
2023-02-19T19:25:35.292Z,7.71
2023-02-19T19:28:08.861Z,7.67
2023-02-19T19:30:43.922Z,7.64
2023-02-19T19:33:17.764Z,7.80
2023-02-19T19:35:48.291Z,7.95
2023-02-19T19:38:17.985Z,8.04
2023-02-19T19:40:51.142Z,8.04
2023-02-19T19:43:21.498Z,7.86
2023-02-19T19:45:51.066Z,7.68
2023-02-19T19:48:19.288Z,7.76
2023-02-19T19:50:48.386Z,7.95
2023-02-19T19:53:16.820Z,8.13
2023-02-19T19:55:45.380Z,7.99
2023-02-19T19:58:14.706Z,8.09
2023-02-19T20:00:45.299Z,8.25
2023-02-19T20:03:14.727Z,8.14
2023-02-19T20:05:43.512Z,8.34
2023-02-19T20:08:14.177Z,8.43
2023-02-19T20:10:45.410Z,8.47
2023-02-19T20:13:26.470Z,8.49
2023-02-19T20:15:57.213Z,8.47
2023-02-19T20:18:27.765Z,8.52
2023-02-19T20:20:58.900Z,8.43
2023-02-19T20:23:28.344Z,8.54
2023-02-19T20:25:58.768Z,8.47
2023-02-19T20:28:26.795Z,8.53
2023-02-19T20:30:59.621Z,8.50
2023-02-19T20:33:27.599Z,8.38
2023-02-19T20:35:57.252Z,8.53
2023-02-19T20:38:25.620Z,8.54
2023-02-19T20:40:53.991Z,8.65
2023-02-19T20:43:21.848Z,8.70
2023-02-19T20:45:50.276Z,8.56
2023-02-19T20:48:18.745Z,8.55
2023-02-19T20:50:47.137Z,8.66
2023-02-19T20:53:15.464Z,8.69
2023-02-19T20:55:43.647Z,8.68
2023-02-19T20:58:11.389Z,8.70
2023-02-19T21:00:39.714Z,8.72
2023-02-19T21:03:09.396Z,8.51
2023-02-19T21:05:38.652Z,8.50
2023-02-19T21:08:07.881Z,8.34
2023-02-19T21:10:35.890Z,8.40
2023-02-19T21:13:04.357Z,8.36
2023-02-19T21:15:32.802Z,8.27
2023-02-19T21:18:01.027Z,8.32
2023-02-19T21:20:29.074Z,8.29
2023-02-19T21:22:57.478Z,8.35
2023-02-19T21:25:25.499Z,8.26
2023-02-19T21:27:54.188Z,8.13
2023-02-19T21:30:22.207Z,8.15
2023-02-19T21:32:50.524Z,8.26
2023-02-19T21:35:18.806Z,8.30
2023-02-19T21:37:47.390Z,8.26
2023-02-19T21:40:15.293Z,8.25
2023-02-19T21:42:44.864Z,8.42
2023-02-19T21:45:13.232Z,8.45
2023-02-19T21:47:43.284Z,8.42
2023-02-19T21:50:11.368Z,8.13
2023-02-19T21:52:40.286Z,8.29
2023-02-19T21:55:08.338Z,8.37
2023-02-19T21:57:36.596Z,8.37
2023-02-19T22:00:07.112Z,8.50
2023-02-19T22:02:35.610Z,8.58
2023-02-19T22:05:03.996Z,8.59
2023-02-19T22:07:32.277Z,8.71
2023-02-19T22:10:00.217Z,8.73
2023-02-19T22:12:28.355Z,8.72
2023-02-19T22:14:56.189Z,8.60
2023-02-19T22:17:24.601Z,8.72
2023-02-19T22:19:52.695Z,8.68
2023-02-19T22:22:20.873Z,8.72
2023-02-19T22:24:49.022Z,8.72
2023-02-19T22:27:17.234Z,8.56
2023-02-19T22:29:45.414Z,8.18
2023-02-19T22:32:13.896Z,8.45
2023-02-19T22:34:42.238Z,8.63
2023-02-19T22:37:11.026Z,8.66
2023-02-19T22:39:39.129Z,8.50
2023-02-19T22:42:07.287Z,8.65
2023-02-19T22:44:35.734Z,8.70
2023-02-19T22:47:03.906Z,8.42
2023-02-19T22:49:31.692Z,8.16
2023-02-19T22:52:09.050Z,8.14
2023-02-19T22:54:37.561Z,8.35
2023-02-19T22:57:06.008Z,8.10
2023-02-19T22:59:33.863Z,8.09
2023-02-19T23:02:02.040Z,7.84
2023-02-19T23:04:30.041Z,7.79
2023-02-19T23:06:59.548Z,8.05
2023-02-19T23:09:29.529Z,7.69
2023-02-19T23:12:07.378Z,7.90
2023-02-19T23:14:35.931Z,8.01
2023-02-19T23:17:04.282Z,8.09
2023-02-19T23:19:33.139Z,8.08
2023-02-19T23:22:01.539Z,8.10
2023-02-19T23:24:29.335Z,8.22
2023-02-19T23:26:58.020Z,8.23
2023-02-19T23:29:27.169Z,7.74
2023-02-19T23:31:55.726Z,7.80
2023-02-19T23:34:24.725Z,7.85
2023-02-19T23:36:54.796Z,8.04
2023-02-19T23:39:22.990Z,8.17
2023-02-19T23:41:54.357Z,8.15
2023-02-19T23:44:24.079Z,8.19
2023-02-19T23:46:52.827Z,8.38
2023-02-19T23:49:21.016Z,7.92
2023-02-19T23:51:49.914Z,7.65
2023-02-19T23:54:17.853Z,7.46
2023-02-19T23:56:46.062Z,7.48
2023-02-19T23:59:14.096Z,7.72
